sensor_id;sensor_type;location;lat;lon;timestamp;P1;durP1;ratioP1;P2;durP2;ratioP2
76094;SDS011;64821;13.710;100.604;2023-02-07T00:00:34;9.13;;;4.70;;
76094;SDS011;64821;13.710;100.604;2023-02-07T00:01:38;10.63;;;4.97;;
76094;SDS011;64821;13.710;100.604;2023-02-07T00:02:42;9.48;;;5.30;;
76094;SDS011;64821;13.710;100.604;2023-02-07T00:03:48;9.10;;;4.35;;
76094;SDS011;64821;13.710;100.604;2023-02-07T00:04:52;10.05;;;4.97;;
76094;SDS011;64821;13.710;100.604;2023-02-07T00:06:02;9.53;;;4.60;;
76094;SDS011;64821;13.710;100.604;2023-02-07T00:07:07;9.88;;;5.40;;
76094;SDS011;64821;13.710;100.604;2023-02-07T00:08:11;11.20;;;5.03;;
76094;SDS011;64821;13.710;100.604;2023-02-07T00:09:15;10.65;;;5.30;;
76094;SDS011;64821;13.710;100.604;2023-02-07T00:10:18;9.52;;;4.38;;
76094;SDS011;64821;13.710;100.604;2023-02-07T00:11:22;10.60;;;5.40;;
76094;SDS011;64821;13.710;100.604;2023-02-07T00:12:26;9.77;;;5.22;;
76094;SDS011;64821;13.710;100.604;2023-02-07T00:13:30;9.70;;;4.80;;
76094;SDS011;64821;13.710;100.604;2023-02-07T00:14:33;10.88;;;5.05;;
76094;SDS011;64821;13.710;100.604;2023-02-07T00:15:37;9.63;;;4.95;;
76094;SDS011;64821;13.710;100.604;2023-02-07T00:16:41;10.87;;;5.40;;
76094;SDS011;64821;13.710;100.604;2023-02-07T00:17:44;8.70;;;4.85;;
76094;SDS011;64821;13.710;100.604;2023-02-07T00:18:50;12.50;;;5.28;;
76094;SDS011;64821;13.710;100.604;2023-02-07T00:19:54;9.77;;;5.50;;
76094;SDS011;64821;13.710;100.604;2023-02-07T00:20:58;11.30;;;5.20;;
76094;SDS011;64821;13.710;100.604;2023-02-07T00:22:02;10.03;;;4.97;;
76094;SDS011;64821;13.710;100.604;2023-02-07T00:23:06;9.23;;;4.65;;
76094;SDS011;64821;13.710;100.604;2023-02-07T00:24:10;8.82;;;4.95;;
76094;SDS011;64821;13.710;100.604;2023-02-07T00:25:13;10.82;;;4.82;;
76094;SDS011;64821;13.710;100.604;2023-02-07T00:26:17;10.00;;;5.10;;
76094;SDS011;64821;13.710;100.604;2023-02-07T00:27:22;10.40;;;5.20;;
76094;SDS011;64821;13.710;100.604;2023-02-07T00:28:26;9.13;;;4.72;;
76094;SDS011;64821;13.710;100.604;2023-02-07T00:29:30;8.02;;;4.47;;
76094;SDS011;64821;13.710;100.604;2023-02-07T00:30:33;9.85;;;4.72;;
76094;SDS011;64821;13.710;100.604;2023-02-07T00:31:37;11.77;;;5.03;;
76094;SDS011;64821;13.710;100.604;2023-02-07T00:32:41;10.73;;;5.00;;
76094;SDS011;64821;13.710;100.604;2023-02-07T00:33:45;10.00;;;4.75;;
76094;SDS011;64821;13.710;100.604;2023-02-07T00:34:51;11.35;;;5.45;;
76094;SDS011;64821;13.710;100.604;2023-02-07T00:35:56;10.02;;;4.85;;
76094;SDS011;64821;13.710;100.604;2023-02-07T00:37:00;10.52;;;5.32;;
76094;SDS011;64821;13.710;100.604;2023-02-07T00:38:03;9.47;;;5.03;;
76094;SDS011;64821;13.710;100.604;2023-02-07T00:39:08;9.82;;;5.20;;
76094;SDS011;64821;13.710;100.604;2023-02-07T00:40:15;9.18;;;4.60;;
76094;SDS011;64821;13.710;100.604;2023-02-07T00:41:19;10.27;;;5.30;;
76094;SDS011;64821;13.710;100.604;2023-02-07T00:42:23;9.43;;;4.78;;
76094;SDS011;64821;13.710;100.604;2023-02-07T00:43:27;8.73;;;4.43;;
76094;SDS011;64821;13.710;100.604;2023-02-07T00:44:31;10.07;;;4.78;;
76094;SDS011;64821;13.710;100.604;2023-02-07T00:45:35;8.70;;;4.28;;
76094;SDS011;64821;13.710;100.604;2023-02-07T00:46:39;10.70;;;4.95;;
76094;SDS011;64821;13.710;100.604;2023-02-07T00:47:42;10.05;;;5.72;;
76094;SDS011;64821;13.710;100.604;2023-02-07T00:50:27;10.02;;;4.80;;
76094;SDS011;64821;13.710;100.604;2023-02-07T00:51:31;10.60;;;4.57;;
76094;SDS011;64821;13.710;100.604;2023-02-07T00:52:35;10.40;;;5.20;;
76094;SDS011;64821;13.710;100.604;2023-02-07T00:53:39;9.23;;;4.68;;
76094;SDS011;64821;13.710;100.604;2023-02-07T00:54:43;10.10;;;4.93;;
76094;SDS011;64821;13.710;100.604;2023-02-07T00:55:47;9.07;;;4.72;;
76094;SDS011;64821;13.710;100.604;2023-02-07T00:56:51;11.40;;;5.43;;
76094;SDS011;64821;13.710;100.604;2023-02-07T00:57:54;9.63;;;5.10;;
76094;SDS011;64821;13.710;100.604;2023-02-07T00:58:58;9.45;;;5.20;;
76094;SDS011;64821;13.710;100.604;2023-02-07T01:00:03;7.97;;;4.33;;
76094;SDS011;64821;13.710;100.604;2023-02-07T01:01:07;9.35;;;4.53;;
76094;SDS011;64821;13.710;100.604;2023-02-07T01:02:11;8.52;;;4.20;;
76094;SDS011;64821;13.710;100.604;2023-02-07T01:03:15;9.57;;;5.30;;
76094;SDS011;64821;13.710;100.604;2023-02-07T01:04:19;9.80;;;5.10;;
76094;SDS011;64821;13.710;100.604;2023-02-07T01:05:22;9.87;;;5.40;;
76094;SDS011;64821;13.710;100.604;2023-02-07T01:06:28;9.90;;;5.65;;
76094;SDS011;64821;13.710;100.604;2023-02-07T01:07:32;8.35;;;4.97;;
76094;SDS011;64821;13.710;100.604;2023-02-07T01:08:36;9.07;;;5.47;;
76094;SDS011;64821;13.710;100.604;2023-02-07T01:09:40;10.00;;;5.53;;
76094;SDS011;64821;13.710;100.604;2023-02-07T01:10:44;10.90;;;5.10;;
76094;SDS011;64821;13.710;100.604;2023-02-07T01:11:48;10.02;;;5.22;;
76094;SDS011;64821;13.710;100.604;2023-02-07T01:12:52;9.43;;;5.15;;
76094;SDS011;64821;13.710;100.604;2023-02-07T01:13:57;8.30;;;4.63;;
76094;SDS011;64821;13.710;100.604;2023-02-07T01:15:01;10.32;;;5.03;;
76094;SDS011;64821;13.710;100.604;2023-02-07T01:16:05;8.83;;;5.00;;
76094;SDS011;64821;13.710;100.604;2023-02-07T01:17:09;10.98;;;5.55;;
76094;SDS011;64821;13.710;100.604;2023-02-07T01:18:13;9.15;;;5.35;;
76094;SDS011;64821;13.710;100.604;2023-02-07T01:19:17;9.38;;;5.05;;
76094;SDS011;64821;13.710;100.604;2023-02-07T01:20:21;8.43;;;5.00;;
76094;SDS011;64821;13.710;100.604;2023-02-07T01:21:25;10.13;;;5.33;;
76094;SDS011;64821;13.710;100.604;2023-02-07T01:22:31;8.10;;;4.82;;
76094;SDS011;64821;13.710;100.604;2023-02-07T01:23:34;9.65;;;5.03;;
76094;SDS011;64821;13.710;100.604;2023-02-07T01:24:38;10.05;;;4.97;;
76094;SDS011;64821;13.710;100.604;2023-02-07T01:25:42;8.07;;;4.93;;
76094;SDS011;64821;13.710;100.604;2023-02-07T01:26:45;8.93;;;4.20;;
76094;SDS011;64821;13.710;100.604;2023-02-07T01:27:49;9.15;;;4.90;;
76094;SDS011;64821;13.710;100.604;2023-02-07T01:28:53;9.63;;;4.97;;
76094;SDS011;64821;13.710;100.604;2023-02-07T01:29:57;11.20;;;4.70;;
76094;SDS011;64821;13.710;100.604;2023-02-07T01:31:05;8.55;;;4.85;;
76094;SDS011;64821;13.710;100.604;2023-02-07T01:32:10;7.53;;;4.27;;
76094;SDS011;64821;13.710;100.604;2023-02-07T01:33:13;9.15;;;4.32;;
76094;SDS011;64821;13.710;100.604;2023-02-07T01:34:17;9.88;;;4.90;;
76094;SDS011;64821;13.710;100.604;2023-02-07T01:35:21;11.10;;;5.32;;
76094;SDS011;64821;13.710;100.604;2023-02-07T01:36:24;9.73;;;6.10;;
76094;SDS011;64821;13.710;100.604;2023-02-07T01:37:31;8.67;;;4.97;;
76094;SDS011;64821;13.710;100.604;2023-02-07T01:38:35;9.73;;;4.57;;
76094;SDS011;64821;13.710;100.604;2023-02-07T01:39:38;9.13;;;5.07;;
76094;SDS011;64821;13.710;100.604;2023-02-07T01:40:42;9.38;;;4.90;;
76094;SDS011;64821;13.710;100.604;2023-02-07T01:41:46;9.15;;;4.97;;
76094;SDS011;64821;13.710;100.604;2023-02-07T01:42:49;9.03;;;4.77;;
76094;SDS011;64821;13.710;100.604;2023-02-07T01:43:55;9.60;;;5.20;;
76094;SDS011;64821;13.710;100.604;2023-02-07T01:45:02;9.77;;;5.45;;
76094;SDS011;64821;13.710;100.604;2023-02-07T01:46:14;8.85;;;4.72;;
76094;SDS011;64821;13.710;100.604;2023-02-07T01:47:18;9.27;;;4.72;;
76094;SDS011;64821;13.710;100.604;2023-02-07T01:48:27;9.80;;;5.37;;
76094;SDS011;64821;13.710;100.604;2023-02-07T01:49:33;9.93;;;5.00;;
76094;SDS011;64821;13.710;100.604;2023-02-07T01:50:38;8.93;;;4.72;;
76094;SDS011;64821;13.710;100.604;2023-02-07T01:51:45;8.90;;;5.03;;
76094;SDS011;64821;13.710;100.604;2023-02-07T01:52:52;7.95;;;4.70;;
76094;SDS011;64821;13.710;100.604;2023-02-07T01:53:58;8.77;;;5.80;;
76094;SDS011;64821;13.710;100.604;2023-02-07T01:55:07;9.15;;;5.43;;
76094;SDS011;64821;13.710;100.604;2023-02-07T01:56:12;8.18;;;5.28;;
76094;SDS011;64821;13.710;100.604;2023-02-07T01:57:32;9.55;;;5.60;;
76094;SDS011;64821;13.710;100.604;2023-02-07T01:58:36;9.65;;;5.80;;
76094;SDS011;64821;13.710;100.604;2023-02-07T01:59:40;9.70;;;6.00;;
76094;SDS011;64821;13.710;100.604;2023-02-07T02:00:45;10.35;;;6.10;;
76094;SDS011;64821;13.710;100.604;2023-02-07T02:01:50;9.00;;;5.38;;
76094;SDS011;64821;13.710;100.604;2023-02-07T02:02:54;9.80;;;6.35;;
76094;SDS011;64821;13.710;100.604;2023-02-07T02:03:59;8.98;;;5.85;;
76094;SDS011;64821;13.710;100.604;2023-02-07T02:05:03;9.30;;;5.80;;
76094;SDS011;64821;13.710;100.604;2023-02-07T02:06:09;10.73;;;5.90;;
76094;SDS011;64821;13.710;100.604;2023-02-07T02:07:15;9.18;;;5.85;;
76094;SDS011;64821;13.710;100.604;2023-02-07T02:08:20;8.93;;;5.90;;
76094;SDS011;64821;13.710;100.604;2023-02-07T02:09:25;9.48;;;6.13;;
76094;SDS011;64821;13.710;100.604;2023-02-07T02:10:32;9.07;;;6.10;;
76094;SDS011;64821;13.710;100.604;2023-02-07T02:12:03;9.70;;;6.15;;
76094;SDS011;64821;13.710;100.604;2023-02-07T02:13:22;10.88;;;6.40;;
76094;SDS011;64821;13.710;100.604;2023-02-07T02:14:36;10.75;;;5.90;;
76094;SDS011;64821;13.710;100.604;2023-02-07T02:15:56;8.77;;;5.78;;
76094;SDS011;64821;13.710;100.604;2023-02-07T02:17:11;9.13;;;6.17;;
76094;SDS011;64821;13.710;100.604;2023-02-07T02:18:26;9.38;;;6.10;;
76094;SDS011;64821;13.710;100.604;2023-02-07T02:19:54;9.93;;;5.85;;
76094;SDS011;64821;13.710;100.604;2023-02-07T02:23:08;9.07;;;4.90;;
76094;SDS011;64821;13.710;100.604;2023-02-07T02:24:27;10.30;;;5.73;;
76094;SDS011;64821;13.710;100.604;2023-02-07T02:26:05;10.07;;;6.20;;
76094;SDS011;64821;13.710;100.604;2023-02-07T02:27:23;9.73;;;5.32;;
76094;SDS011;64821;13.710;100.604;2023-02-07T02:30:36;9.68;;;5.70;;
76094;SDS011;64821;13.710;100.604;2023-02-07T02:32:05;9.10;;;5.50;;
76094;SDS011;64821;13.710;100.604;2023-02-07T02:33:43;8.50;;;5.05;;
76094;SDS011;64821;13.710;100.604;2023-02-07T02:34:55;10.82;;;5.28;;
76094;SDS011;64821;13.710;100.604;2023-02-07T02:36:06;9.95;;;5.28;;
76094;SDS011;64821;13.710;100.604;2023-02-07T02:37:22;9.85;;;6.22;;
76094;SDS011;64821;13.710;100.604;2023-02-07T02:38:34;9.17;;;5.70;;
76094;SDS011;64821;13.710;100.604;2023-02-07T02:39:47;9.80;;;5.45;;
76094;SDS011;64821;13.710;100.604;2023-02-07T02:40:58;8.85;;;5.57;;
76094;SDS011;64821;13.710;100.604;2023-02-07T02:42:06;10.18;;;6.55;;
76094;SDS011;64821;13.710;100.604;2023-02-07T02:43:18;9.90;;;5.40;;
76094;SDS011;64821;13.710;100.604;2023-02-07T02:44:29;9.43;;;5.63;;
76094;SDS011;64821;13.710;100.604;2023-02-07T02:45:39;10.50;;;6.15;;
76094;SDS011;64821;13.710;100.604;2023-02-07T02:47:00;9.63;;;5.78;;
76094;SDS011;64821;13.710;100.604;2023-02-07T02:48:08;10.38;;;5.93;;
76094;SDS011;64821;13.710;100.604;2023-02-07T02:49:13;10.70;;;6.18;;
76094;SDS011;64821;13.710;100.604;2023-02-07T02:50:20;12.10;;;6.97;;
76094;SDS011;64821;13.710;100.604;2023-02-07T02:51:27;11.10;;;6.38;;
76094;SDS011;64821;13.710;100.604;2023-02-07T02:52:30;9.13;;;5.65;;
76094;SDS011;64821;13.710;100.604;2023-02-07T02:53:51;9.45;;;6.05;;
76094;SDS011;64821;13.710;100.604;2023-02-07T02:54:56;9.50;;;5.60;;
76094;SDS011;64821;13.710;100.604;2023-02-07T02:57:45;8.43;;;5.10;;
76094;SDS011;64821;13.710;100.604;2023-02-07T02:59:22;9.73;;;5.68;;
76094;SDS011;64821;13.710;100.604;2023-02-07T03:00:50;8.25;;;5.53;;
76094;SDS011;64821;13.710;100.604;2023-02-07T03:02:20;8.82;;;5.32;;
76094;SDS011;64821;13.710;100.604;2023-02-07T03:03:42;9.50;;;5.70;;
76094;SDS011;64821;13.710;100.604;2023-02-07T03:05:02;8.10;;;4.53;;
76094;SDS011;64821;13.710;100.604;2023-02-07T03:06:18;10.40;;;5.72;;
76094;SDS011;64821;13.710;100.604;2023-02-07T03:07:37;9.05;;;6.03;;
76094;SDS011;64821;13.710;100.604;2023-02-07T03:08:52;8.93;;;4.90;;
76094;SDS011;64821;13.710;100.604;2023-02-07T03:10:01;8.57;;;5.67;;
76094;SDS011;64821;13.710;100.604;2023-02-07T03:11:10;10.77;;;6.05;;
76094;SDS011;64821;13.710;100.604;2023-02-07T03:12:17;9.00;;;5.78;;
76094;SDS011;64821;13.710;100.604;2023-02-07T03:13:26;9.13;;;5.88;;
76094;SDS011;64821;13.710;100.604;2023-02-07T03:14:35;9.77;;;5.55;;
76094;SDS011;64821;13.710;100.604;2023-02-07T03:15:48;9.67;;;5.70;;
76094;SDS011;64821;13.710;100.604;2023-02-07T03:17:05;10.18;;;5.93;;
76094;SDS011;64821;13.710;100.604;2023-02-07T03:18:17;10.55;;;5.80;;
76094;SDS011;64821;13.710;100.604;2023-02-07T03:19:28;10.02;;;6.22;;
76094;SDS011;64821;13.710;100.604;2023-02-07T03:20:37;10.73;;;5.65;;
76094;SDS011;64821;13.710;100.604;2023-02-07T03:21:45;10.73;;;6.00;;
76094;SDS011;64821;13.710;100.604;2023-02-07T03:22:52;10.63;;;6.05;;
76094;SDS011;64821;13.710;100.604;2023-02-07T03:23:59;11.80;;;5.88;;
76094;SDS011;64821;13.710;100.604;2023-02-07T03:25:08;8.52;;;5.75;;
76094;SDS011;64821;13.710;100.604;2023-02-07T03:26:15;10.93;;;6.03;;
76094;SDS011;64821;13.710;100.604;2023-02-07T03:27:20;9.70;;;5.97;;
76094;SDS011;64821;13.710;100.604;2023-02-07T03:28:25;10.20;;;6.55;;
76094;SDS011;64821;13.710;100.604;2023-02-07T03:29:32;9.20;;;5.80;;
76094;SDS011;64821;13.710;100.604;2023-02-07T03:30:38;9.93;;;5.82;;
76094;SDS011;64821;13.710;100.604;2023-02-07T03:31:44;10.27;;;6.13;;
76094;SDS011;64821;13.710;100.604;2023-02-07T03:32:54;9.30;;;5.53;;
76094;SDS011;64821;13.710;100.604;2023-02-07T03:34:01;9.45;;;6.28;;
76094;SDS011;64821;13.710;100.604;2023-02-07T03:35:12;9.93;;;5.30;;
76094;SDS011;64821;13.710;100.604;2023-02-07T03:36:21;9.15;;;5.32;;
76094;SDS011;64821;13.710;100.604;2023-02-07T03:37:31;9.70;;;5.60;;
76094;SDS011;64821;13.710;100.604;2023-02-07T03:38:38;12.07;;;6.23;;
76094;SDS011;64821;13.710;100.604;2023-02-07T03:39:41;9.05;;;6.22;;
76094;SDS011;64821;13.710;100.604;2023-02-07T03:40:46;9.63;;;6.20;;
76094;SDS011;64821;13.710;100.604;2023-02-07T03:41:55;8.50;;;5.68;;
76094;SDS011;64821;13.710;100.604;2023-02-07T03:43:01;11.00;;;5.55;;
76094;SDS011;64821;13.710;100.604;2023-02-07T03:44:08;10.13;;;6.23;;
76094;SDS011;64821;13.710;100.604;2023-02-07T03:45:15;9.15;;;5.43;;
76094;SDS011;64821;13.710;100.604;2023-02-07T03:46:22;8.75;;;5.55;;
76094;SDS011;64821;13.710;100.604;2023-02-07T03:47:25;9.48;;;5.90;;
76094;SDS011;64821;13.710;100.604;2023-02-07T03:48:29;9.45;;;5.93;;
76094;SDS011;64821;13.710;100.604;2023-02-07T03:49:33;9.13;;;5.53;;
76094;SDS011;64821;13.710;100.604;2023-02-07T03:50:38;10.20;;;5.65;;
76094;SDS011;64821;13.710;100.604;2023-02-07T03:51:42;9.77;;;6.15;;
76094;SDS011;64821;13.710;100.604;2023-02-07T03:52:46;11.05;;;5.60;;
76094;SDS011;64821;13.710;100.604;2023-02-07T03:53:49;10.60;;;5.57;;
76094;SDS011;64821;13.710;100.604;2023-02-07T03:54:53;10.07;;;5.70;;
76094;SDS011;64821;13.710;100.604;2023-02-07T03:55:57;9.23;;;5.90;;
76094;SDS011;64821;13.710;100.604;2023-02-07T03:57:00;9.45;;;5.72;;
76094;SDS011;64821;13.710;100.604;2023-02-07T03:58:04;9.70;;;6.00;;
76094;SDS011;64821;13.710;100.604;2023-02-07T03:59:08;10.43;;;5.95;;
76094;SDS011;64821;13.710;100.604;2023-02-07T04:00:12;11.63;;;6.10;;
76094;SDS011;64821;13.710;100.604;2023-02-07T04:01:16;9.00;;;5.70;;
76094;SDS011;64821;13.710;100.604;2023-02-07T04:02:20;9.15;;;5.93;;
76094;SDS011;64821;13.710;100.604;2023-02-07T04:03:24;9.43;;;6.13;;
76094;SDS011;64821;13.710;100.604;2023-02-07T04:04:28;9.05;;;5.90;;
76094;SDS011;64821;13.710;100.604;2023-02-07T04:05:32;9.53;;;6.50;;
76094;SDS011;64821;13.710;100.604;2023-02-07T04:06:37;8.98;;;5.72;;
76094;SDS011;64821;13.710;100.604;2023-02-07T04:07:41;10.82;;;6.35;;
76094;SDS011;64821;13.710;100.604;2023-02-07T04:08:44;9.85;;;6.15;;
76094;SDS011;64821;13.710;100.604;2023-02-07T04:09:48;11.05;;;5.80;;
76094;SDS011;64821;13.710;100.604;2023-02-07T04:10:56;9.10;;;5.37;;
76094;SDS011;64821;13.710;100.604;2023-02-07T04:12:00;9.68;;;6.20;;
76094;SDS011;64821;13.710;100.604;2023-02-07T04:13:03;9.38;;;5.55;;
76094;SDS011;64821;13.710;100.604;2023-02-07T04:14:08;9.48;;;5.78;;
76094;SDS011;64821;13.710;100.604;2023-02-07T04:15:11;9.65;;;6.00;;
76094;SDS011;64821;13.710;100.604;2023-02-07T04:16:15;9.73;;;6.10;;
76094;SDS011;64821;13.710;100.604;2023-02-07T04:17:19;9.38;;;6.07;;
76094;SDS011;64821;13.710;100.604;2023-02-07T04:18:22;8.98;;;5.75;;
76094;SDS011;64821;13.710;100.604;2023-02-07T04:19:26;11.90;;;6.85;;
76094;SDS011;64821;13.710;100.604;2023-02-07T04:20:30;10.93;;;6.30;;
76094;SDS011;64821;13.710;100.604;2023-02-07T04:21:33;9.70;;;6.40;;
76094;SDS011;64821;13.710;100.604;2023-02-07T04:22:39;10.45;;;6.25;;
76094;SDS011;64821;13.710;100.604;2023-02-07T04:23:42;9.55;;;5.85;;
76094;SDS011;64821;13.710;100.604;2023-02-07T04:24:46;9.30;;;5.82;;
76094;SDS011;64821;13.710;100.604;2023-02-07T04:25:51;9.13;;;5.30;;
76094;SDS011;64821;13.710;100.604;2023-02-07T04:26:54;10.40;;;6.40;;
76094;SDS011;64821;13.710;100.604;2023-02-07T04:27:58;10.60;;;6.22;;
76094;SDS011;64821;13.710;100.604;2023-02-07T04:29:01;9.15;;;5.82;;
76094;SDS011;64821;13.710;100.604;2023-02-07T04:30:06;9.48;;;6.60;;
76094;SDS011;64821;13.710;100.604;2023-02-07T04:31:10;9.95;;;6.18;;
76094;SDS011;64821;13.710;100.604;2023-02-07T04:32:14;9.30;;;6.10;;
76094;SDS011;64821;13.710;100.604;2023-02-07T04:33:18;10.00;;;6.50;;
76094;SDS011;64821;13.710;100.604;2023-02-07T04:34:22;10.27;;;6.10;;
76094;SDS011;64821;13.710;100.604;2023-02-07T04:35:26;10.63;;;6.53;;
76094;SDS011;64821;13.710;100.604;2023-02-07T04:36:29;10.63;;;6.22;;
76094;SDS011;64821;13.710;100.604;2023-02-07T04:37:33;10.97;;;6.50;;
76094;SDS011;64821;13.710;100.604;2023-02-07T04:38:38;8.95;;;6.40;;
76094;SDS011;64821;13.710;100.604;2023-02-07T04:39:42;10.50;;;6.10;;
76094;SDS011;64821;13.710;100.604;2023-02-07T04:40:46;9.27;;;6.18;;
76094;SDS011;64821;13.710;100.604;2023-02-07T04:41:49;10.13;;;6.32;;
76094;SDS011;64821;13.710;100.604;2023-02-07T04:42:53;10.33;;;6.10;;
76094;SDS011;64821;13.710;100.604;2023-02-07T04:43:57;9.50;;;6.10;;
76094;SDS011;64821;13.710;100.604;2023-02-07T04:45:00;10.00;;;6.10;;
76094;SDS011;64821;13.710;100.604;2023-02-07T04:46:05;9.60;;;5.78;;
76094;SDS011;64821;13.710;100.604;2023-02-07T04:47:09;10.25;;;5.90;;
76094;SDS011;64821;13.710;100.604;2023-02-07T04:48:13;8.93;;;6.13;;
76094;SDS011;64821;13.710;100.604;2023-02-07T04:49:17;8.85;;;5.78;;
76094;SDS011;64821;13.710;100.604;2023-02-07T04:50:21;12.20;;;6.10;;
76094;SDS011;64821;13.710;100.604;2023-02-07T04:51:24;9.55;;;5.40;;
76094;SDS011;64821;13.710;100.604;2023-02-07T04:52:28;8.48;;;5.32;;
76094;SDS011;64821;13.710;100.604;2023-02-07T04:53:32;8.70;;;5.17;;
76094;SDS011;64821;13.710;100.604;2023-02-07T04:54:37;9.35;;;5.22;;
76094;SDS011;64821;13.710;100.604;2023-02-07T04:55:41;8.52;;;5.25;;
76094;SDS011;64821;13.710;100.604;2023-02-07T04:56:45;8.85;;;5.72;;
76094;SDS011;64821;13.710;100.604;2023-02-07T04:57:48;8.73;;;5.63;;
76094;SDS011;64821;13.710;100.604;2023-02-07T04:58:52;8.27;;;5.20;;
76094;SDS011;64821;13.710;100.604;2023-02-07T04:59:56;8.57;;;5.50;;
76094;SDS011;64821;13.710;100.604;2023-02-07T05:00:59;12.45;;;6.22;;
76094;SDS011;64821;13.710;100.604;2023-02-07T05:02:03;8.82;;;5.82;;
76094;SDS011;64821;13.710;100.604;2023-02-07T05:03:07;10.57;;;5.75;;
76094;SDS011;64821;13.710;100.604;2023-02-07T05:04:10;9.43;;;5.43;;
76094;SDS011;64821;13.710;100.604;2023-02-07T05:05:15;9.60;;;5.50;;
76094;SDS011;64821;13.710;100.604;2023-02-07T05:06:19;9.70;;;5.47;;
76094;SDS011;64821;13.710;100.604;2023-02-07T05:07:22;9.50;;;5.75;;
76094;SDS011;64821;13.710;100.604;2023-02-07T05:08:26;10.07;;;6.03;;
76094;SDS011;64821;13.710;100.604;2023-02-07T05:09:30;9.67;;;5.73;;
76094;SDS011;64821;13.710;100.604;2023-02-07T05:10:35;10.63;;;6.05;;
76094;SDS011;64821;13.710;100.604;2023-02-07T05:11:39;9.23;;;5.85;;
76094;SDS011;64821;13.710;100.604;2023-02-07T05:12:43;8.48;;;4.97;;
76094;SDS011;64821;13.710;100.604;2023-02-07T05:13:46;8.65;;;5.57;;
76094;SDS011;64821;13.710;100.604;2023-02-07T05:14:51;10.13;;;5.60;;
76094;SDS011;64821;13.710;100.604;2023-02-07T05:15:55;11.32;;;5.85;;
76094;SDS011;64821;13.710;100.604;2023-02-07T05:16:58;8.80;;;5.57;;
76094;SDS011;64821;13.710;100.604;2023-02-07T05:18:02;8.98;;;5.63;;
76094;SDS011;64821;13.710;100.604;2023-02-07T05:19:06;9.40;;;5.97;;
76094;SDS011;64821;13.710;100.604;2023-02-07T05:20:10;8.50;;;5.80;;
76094;SDS011;64821;13.710;100.604;2023-02-07T05:21:14;9.38;;;5.70;;
76094;SDS011;64821;13.710;100.604;2023-02-07T05:22:18;9.10;;;5.80;;
76094;SDS011;64821;13.710;100.604;2023-02-07T05:23:21;10.65;;;6.32;;
76094;SDS011;64821;13.710;100.604;2023-02-07T05:24:25;9.35;;;5.70;;
76094;SDS011;64821;13.710;100.604;2023-02-07T05:25:29;9.93;;;6.20;;
76094;SDS011;64821;13.710;100.604;2023-02-07T05:26:34;9.40;;;6.00;;
76094;SDS011;64821;13.710;100.604;2023-02-07T05:27:40;10.25;;;5.93;;
76094;SDS011;64821;13.710;100.604;2023-02-07T05:28:44;10.13;;;6.00;;
76094;SDS011;64821;13.710;100.604;2023-02-07T05:29:48;9.63;;;5.53;;
76094;SDS011;64821;13.710;100.604;2023-02-07T05:30:52;10.07;;;6.00;;
76094;SDS011;64821;13.710;100.604;2023-02-07T05:31:56;11.13;;;6.15;;
76094;SDS011;64821;13.710;100.604;2023-02-07T05:33:00;10.63;;;5.78;;
76094;SDS011;64821;13.710;100.604;2023-02-07T05:34:03;8.55;;;5.40;;
76094;SDS011;64821;13.710;100.604;2023-02-07T05:35:07;9.02;;;5.30;;
76094;SDS011;64821;13.710;100.604;2023-02-07T05:36:11;8.50;;;5.33;;
76094;SDS011;64821;13.710;100.604;2023-02-07T05:37:14;10.52;;;6.15;;
76094;SDS011;64821;13.710;100.604;2023-02-07T05:38:18;10.63;;;5.95;;
76094;SDS011;64821;13.710;100.604;2023-02-07T05:39:22;9.85;;;5.60;;
76094;SDS011;64821;13.710;100.604;2023-02-07T05:40:26;10.00;;;5.90;;
76094;SDS011;64821;13.710;100.604;2023-02-07T05:41:30;8.37;;;5.30;;
76094;SDS011;64821;13.710;100.604;2023-02-07T05:42:35;9.77;;;5.97;;
76094;SDS011;64821;13.710;100.604;2023-02-07T05:43:39;9.10;;;5.93;;
76094;SDS011;64821;13.710;100.604;2023-02-07T05:44:43;9.73;;;5.55;;
76094;SDS011;64821;13.710;100.604;2023-02-07T05:45:47;8.60;;;5.30;;
76094;SDS011;64821;13.710;100.604;2023-02-07T05:46:50;9.90;;;5.73;;
76094;SDS011;64821;13.710;100.604;2023-02-07T05:47:54;10.25;;;5.65;;
76094;SDS011;64821;13.710;100.604;2023-02-07T05:48:58;10.05;;;6.03;;
76094;SDS011;64821;13.710;100.604;2023-02-07T05:50:02;8.98;;;5.45;;
76094;SDS011;64821;13.710;100.604;2023-02-07T05:51:06;8.90;;;5.40;;
76094;SDS011;64821;13.710;100.604;2023-02-07T05:52:10;9.27;;;6.00;;
76094;SDS011;64821;13.710;100.604;2023-02-07T05:53:13;9.55;;;5.93;;
76094;SDS011;64821;13.710;100.604;2023-02-07T05:54:17;9.60;;;5.95;;
76094;SDS011;64821;13.710;100.604;2023-02-07T05:55:21;9.98;;;6.28;;
76094;SDS011;64821;13.710;100.604;2023-02-07T05:56:25;9.70;;;6.10;;
76094;SDS011;64821;13.710;100.604;2023-02-07T05:57:29;10.43;;;6.20;;
76094;SDS011;64821;13.710;100.604;2023-02-07T05:58:34;9.40;;;5.57;;
76094;SDS011;64821;13.710;100.604;2023-02-07T05:59:38;10.63;;;5.53;;
76094;SDS011;64821;13.710;100.604;2023-02-07T06:00:41;9.05;;;5.07;;
76094;SDS011;64821;13.710;100.604;2023-02-07T06:01:45;8.93;;;5.57;;
76094;SDS011;64821;13.710;100.604;2023-02-07T06:02:49;10.50;;;5.50;;
76094;SDS011;64821;13.710;100.604;2023-02-07T06:03:52;9.95;;;5.90;;
76094;SDS011;64821;13.710;100.604;2023-02-07T06:04:56;9.23;;;5.30;;
76094;SDS011;64821;13.710;100.604;2023-02-07T06:06:00;10.10;;;5.72;;
76094;SDS011;64821;13.710;100.604;2023-02-07T06:07:03;9.77;;;5.35;;
76094;SDS011;64821;13.710;100.604;2023-02-07T06:08:07;9.17;;;5.90;;
76094;SDS011;64821;13.710;100.604;2023-02-07T06:09:11;9.07;;;5.43;;
76094;SDS011;64821;13.710;100.604;2023-02-07T06:10:15;9.00;;;5.10;;
76094;SDS011;64821;13.710;100.604;2023-02-07T06:11:18;8.70;;;4.90;;
76094;SDS011;64821;13.710;100.604;2023-02-07T06:12:22;9.60;;;5.38;;
76094;SDS011;64821;13.710;100.604;2023-02-07T06:13:26;9.00;;;5.90;;
76094;SDS011;64821;13.710;100.604;2023-02-07T06:14:31;8.82;;;5.20;;
76094;SDS011;64821;13.710;100.604;2023-02-07T06:15:35;8.20;;;5.40;;
76094;SDS011;64821;13.710;100.604;2023-02-07T06:16:39;9.20;;;5.65;;
76094;SDS011;64821;13.710;100.604;2023-02-07T06:17:42;9.82;;;5.55;;
76094;SDS011;64821;13.710;100.604;2023-02-07T06:18:46;10.13;;;5.50;;
76094;SDS011;64821;13.710;100.604;2023-02-07T06:19:50;10.05;;;6.05;;
76094;SDS011;64821;13.710;100.604;2023-02-07T06:20:54;8.30;;;5.35;;
76094;SDS011;64821;13.710;100.604;2023-02-07T06:21:58;9.40;;;6.20;;
76094;SDS011;64821;13.710;100.604;2023-02-07T06:23:01;9.57;;;6.32;;
76094;SDS011;64821;13.710;100.604;2023-02-07T06:24:05;10.17;;;5.87;;
76094;SDS011;64821;13.710;100.604;2023-02-07T06:25:09;8.65;;;5.80;;
76094;SDS011;64821;13.710;100.604;2023-02-07T06:26:13;8.70;;;5.63;;
76094;SDS011;64821;13.710;100.604;2023-02-07T06:27:16;9.52;;;5.95;;
76094;SDS011;64821;13.710;100.604;2023-02-07T06:28:20;10.15;;;6.00;;
76094;SDS011;64821;13.710;100.604;2023-02-07T06:29:24;9.63;;;5.70;;
76094;SDS011;64821;13.710;100.604;2023-02-07T06:30:29;9.45;;;5.45;;
76094;SDS011;64821;13.710;100.604;2023-02-07T06:31:33;9.77;;;6.07;;
76094;SDS011;64821;13.710;100.604;2023-02-07T06:32:36;10.70;;;6.03;;